Izmir/Adnan Menderes Airport

Airport
ICAO code: 
LTBJ
IATA Code: 
ADB
Summary
ICAO Region: 
EUR
Territory: 
Location: 
Izmir,
Serving: 
Izmir
Elevation: 
412 ft
Coordinates: 
Aerial View: 
38° 17' 36.929" N, 27° 9' 7.518" E
Metar
Observation
LTBJ 281120Z VRB04KT 9999 FEW035 SCT090 09/M07 Q1021 NOSIG
Station
Izmir / Adnan Menderes
Date/Time
2022-01-28 11:20:00
Wind speed
04 kts
Lowest cloud amount
few clouds
Temperature
9°C
Dew point
-7°C
Humidity
31%
QNH
1021 hPa
Weather condition
n/a

Runways

Designator Length Width Surface Rops
16L/34R 3240 45 ASP Yes/Yes
16R/34L 3240 45 CON Yes/Yes
Airport map: 
Aerial View: 

SKYbrary Partners:

Safety knowledge contributed by: